createdAt,value
2023-01-04T00:02:55.602Z,18.9
2023-01-04T00:08:19.305Z,18.9
2023-01-04T00:13:26.496Z,18.9
2023-01-04T00:18:37.514Z,18.9
2023-01-04T00:23:59.747Z,18.9
2023-01-04T00:28:54.353Z,18.9
2023-01-04T00:34:02.242Z,18.9
2023-01-04T00:39:47.429Z,18.8
2023-01-04T00:45:37.150Z,18.9
2023-01-04T00:51:01.282Z,18.9
2023-01-04T00:56:23.645Z,18.8
2023-01-04T01:01:31.381Z,18.9
2023-01-04T01:06:47.133Z,18.8
2023-01-04T01:12:09.924Z,18.8
2023-01-04T01:17:46.585Z,18.8
2023-01-04T01:23:08.474Z,18.8
2023-01-04T01:28:15.874Z,18.8
2023-01-04T01:33:23.314Z,18.8
2023-01-04T01:38:30.232Z,18.8
2023-01-04T01:43:53.041Z,18.8
2023-01-04T01:49:14.546Z,18.8
2023-01-04T01:54:37.261Z,18.8
2023-01-04T01:59:44.778Z,18.8
2023-01-04T02:05:09.628Z,18.8
2023-01-04T02:10:16.494Z,18.8
2023-01-04T02:15:39.301Z,18.8
2023-01-04T02:20:45.983Z,18.8
2023-01-04T02:26:08.418Z,18.8
2023-01-04T02:31:31.265Z,18.8
2023-01-04T02:36:54.757Z,18.8
2023-01-04T02:42:17.745Z,18.8
2023-01-04T02:47:32.757Z,18.8
2023-01-04T02:52:24.863Z,18.8
2023-01-04T03:07:39.457Z,18.8
2023-01-04T03:12:46.776Z,18.8
2023-01-04T03:17:58.935Z,18.8
2023-01-04T03:51:02.469Z,18.8
2023-01-04T04:43:15.271Z,18.6
2023-01-04T04:58:06.038Z,18.6
2023-01-04T05:27:34.304Z,18.6
2023-01-04T06:25:29.925Z,18.6
2023-01-04T06:35:52.668Z,18.8
2023-01-04T06:41:10.869Z,18.8
2023-01-04T06:46:23.061Z,18.8
2023-01-04T06:51:34.611Z,18.8
2023-01-04T06:56:41.892Z,18.8
2023-01-04T07:01:48.847Z,18.8
2023-01-04T07:22:41.868Z,18.6
2023-01-04T07:27:55.109Z,18.6
2023-01-04T07:33:03.771Z,18.6
2023-01-04T07:38:15.437Z,18.6
2023-01-04T07:43:28.114Z,18.6
2023-01-04T07:48:35.714Z,18.6
2023-01-04T08:32:42.637Z,18.8
2023-01-04T08:38:28.838Z,18.8
2023-01-04T08:45:33.069Z,18.8
2023-01-04T08:50:44.068Z,18.8
2023-01-04T08:55:57.986Z,18.8
2023-01-04T09:00:49.277Z,18.8
2023-01-04T09:06:12.173Z,18.8
2023-01-04T09:11:04.132Z,18.8
2023-01-04T09:16:19.739Z,18.8
2023-01-04T09:21:56.917Z,18.8
2023-01-04T09:27:08.260Z,18.8
2023-01-04T09:32:33.372Z,18.8
2023-01-04T09:38:14.373Z,18.8
2023-01-04T09:43:53.619Z,18.8
2023-01-04T09:49:48.787Z,18.8
2023-01-04T09:54:56.349Z,18.8
2023-01-04T10:00:30.372Z,18.8
2023-01-04T10:05:39.255Z,18.8
2023-01-04T10:10:47.042Z,18.8
2023-01-04T10:15:55.074Z,18.8
2023-01-04T10:24:41.612Z,18.8
2023-01-04T10:29:54.823Z,18.8
2023-01-04T10:35:41.821Z,18.8
2023-01-04T10:40:54.923Z,18.8
2023-01-04T10:46:47.726Z,18.8
2023-01-04T10:51:59.997Z,18.8
2023-01-04T10:57:46.428Z,18.8
2023-01-04T11:02:55.603Z,18.8
2023-01-04T11:08:03.412Z,18.8
2023-01-04T11:13:28.796Z,18.8
2023-01-04T11:18:38.303Z,18.8
2023-01-04T11:23:52.755Z,18.8
2023-01-04T11:30:01.442Z,18.8
2023-01-04T11:34:38.107Z,18.8
2023-01-04T11:39:45.865Z,18.9
2023-01-04T11:44:55.807Z,19
2023-01-04T11:50:10.318Z,19.1
2023-01-04T11:55:18.331Z,19
2023-01-04T12:00:47.850Z,17.9
2023-01-04T12:06:52.492Z,22.1
2023-01-04T12:12:16.223Z,23.6
2023-01-04T12:17:43.076Z,24.5
2023-01-04T12:22:19.224Z,24.7
2023-01-04T12:27:31.595Z,24.4
2023-01-04T12:32:58.312Z,24.2
2023-01-04T12:38:26.811Z,23.8
2023-01-04T12:43:49.624Z,23.6
2023-01-04T12:49:12.554Z,23.5
2023-01-04T12:56:06.368Z,23.4
2023-01-04T13:02:14.285Z,23.2
2023-01-04T13:08:39.510Z,23.1
2023-01-04T13:13:48.557Z,22.9
2023-01-04T13:19:01.837Z,22.8
2023-01-04T13:24:25.413Z,22.6
2023-01-04T13:29:58.230Z,22.3
2023-01-04T13:35:47.568Z,22.2
2023-01-04T13:41:10.373Z,21.9
2023-01-04T13:47:12.224Z,21.8
2023-01-04T13:53:26.168Z,21.6
2023-01-04T13:58:35.403Z,21.3
2023-01-04T14:08:59.687Z,20.9
2023-01-04T14:14:21.942Z,20.8
2023-01-04T14:19:45.860Z,20.6
2023-01-04T14:25:31.294Z,20.5
2023-01-04T14:30:45.500Z,20.4
2023-01-04T14:35:58.153Z,20.3
2023-01-04T14:41:05.843Z,20.2
2023-01-04T14:46:16.829Z,20.1
2023-01-04T14:51:32.631Z,20
2023-01-04T14:56:39.848Z,19.9
2023-01-04T15:01:47.119Z,19.9
2023-01-04T15:06:43.511Z,19.8
2023-01-04T15:11:50.872Z,19.8
2023-01-04T15:17:05.096Z,19.8
2023-01-04T15:22:14.681Z,19.7
2023-01-04T15:27:25.651Z,19.7
2023-01-04T15:33:01.024Z,19.6
2023-01-04T15:38:32.504Z,19.6
2023-01-04T15:44:07.166Z,19.5
2023-01-04T15:49:34.034Z,19.5
2023-01-04T15:54:56.535Z,19.4
2023-01-04T16:00:13.750Z,19.4
2023-01-04T16:05:32.706Z,19.4
2023-01-04T16:10:45.368Z,19.4
2023-01-04T16:16:08.250Z,19.3
2023-01-04T16:21:35.985Z,19.3
2023-01-04T16:27:23.786Z,19.3
2023-01-04T16:32:47.370Z,19.3
2023-01-04T16:37:54.640Z,19.3
2023-01-04T16:43:50.204Z,19.2
2023-01-04T16:49:13.468Z,19.2
2023-01-04T16:54:20.230Z,19.2
2023-01-04T16:59:43.113Z,19.2
2023-01-04T17:05:16.642Z,19.2
2023-01-04T17:10:43.776Z,19.1
2023-01-04T17:17:41.381Z,19.1
2023-01-04T17:23:12.391Z,19.1
2023-01-04T17:28:24.607Z,19.1
2023-01-04T17:33:31.704Z,19.1
2023-01-04T17:38:55.536Z,19.1
2023-01-04T17:44:05.459Z,19.1
2023-01-04T17:49:38.626Z,19
2023-01-04T17:54:54.571Z,19
2023-01-04T17:59:51.673Z,19
2023-01-04T18:05:03.790Z,19
2023-01-04T18:11:23.429Z,19
2023-01-04T18:16:51.260Z,19
2023-01-04T18:22:05.140Z,19
2023-01-04T18:28:33.644Z,19
2023-01-04T18:33:45.012Z,18.9
2023-01-04T18:38:58.409Z,18.9
2023-01-04T18:44:51.377Z,18.9
2023-01-04T18:49:58.802Z,18.9
2023-01-04T18:55:08.402Z,18.9
2023-01-04T19:00:23.186Z,18.9
2023-01-04T19:05:35.937Z,18.9
2023-01-04T19:10:51.186Z,18.9
2023-01-04T19:16:04.068Z,18.9
2023-01-04T19:21:11.525Z,18.9
2023-01-04T19:26:19.113Z,18.9
2023-01-04T19:31:11.420Z,18.9
2023-01-04T19:36:18.714Z,18.9
2023-01-04T19:41:32.999Z,18.9
2023-01-04T19:46:41.582Z,18.9
2023-01-04T19:51:32.942Z,18.9
2023-01-04T19:56:40.228Z,18.9
2023-01-04T20:02:03.992Z,18.9
2023-01-04T20:07:28.127Z,18.9
2023-01-04T20:12:42.953Z,18.9
2023-01-04T20:17:50.798Z,18.9
2023-01-04T20:23:04.310Z,18.9
2023-01-04T20:28:10.942Z,19.2
2023-01-04T20:33:24.570Z,19.6
2023-01-04T20:38:36.168Z,20.1
2023-01-04T20:43:46.816Z,20.8
2023-01-04T20:49:00.391Z,21.4
2023-01-04T20:54:07.437Z,22.1
2023-01-04T20:59:33.356Z,22.8
2023-01-04T21:04:49.220Z,23.4
2023-01-04T21:09:55.817Z,24.1
2023-01-04T21:15:04.830Z,24.8
2023-01-04T21:19:41.401Z,25.3
2023-01-04T21:25:04.465Z,25.6
2023-01-04T21:30:11.455Z,25.8
2023-01-04T21:35:24.285Z,25.9
2023-01-04T21:40:31.530Z,26.1
2023-01-04T21:45:44.659Z,26.1
2023-01-04T21:50:51.942Z,26.1
2023-01-04T21:56:06.961Z,26.2
2023-01-04T22:05:52.856Z,26.2
2023-01-04T22:11:20.328Z,26.2
2023-01-04T22:16:27.798Z,26.3
2023-01-04T22:21:35.211Z,26.3
2023-01-04T22:26:49.704Z,26.2
2023-01-04T22:32:01.546Z,26.3
2023-01-04T22:37:12.689Z,26.2
2023-01-04T22:42:20.544Z,26.3
2023-01-04T22:47:27.585Z,26.3
2023-01-04T22:52:20.238Z,26.2
2023-01-04T22:58:01.648Z,26.2
2023-01-04T23:02:55.697Z,26.2
2023-01-04T23:07:48.211Z,26.2
2023-01-04T23:12:55.400Z,26.2
2023-01-04T23:18:10.647Z,26.1
2023-01-04T23:28:11.412Z,25.9
2023-01-04T23:33:02.887Z,25.8
2023-01-04T23:38:10.543Z,25.8
2023-01-04T23:43:02.273Z,25.7
2023-01-04T23:47:52.097Z,25.7
2023-01-04T23:53:14.774Z,25.6
2023-01-04T23:58:37.400Z,25.6
